createdAt,value
2018-04-14T00:01:41.316Z,29.43
2018-04-14T00:04:08.157Z,26.90
2018-04-14T00:06:34.236Z,30.08
2018-04-14T00:09:01.114Z,31.30
2018-04-14T00:11:27.572Z,29.47
2018-04-14T00:13:54.538Z,31.63
2018-04-14T00:16:20.617Z,30.30
2018-04-14T00:18:46.802Z,29.60
2018-04-14T00:21:12.960Z,30.07
2018-04-14T00:23:39.992Z,29.87
2018-04-14T00:26:06.093Z,30.00
2018-04-14T00:28:32.214Z,31.55
2018-04-14T00:30:59.182Z,31.20
2018-04-14T00:33:25.373Z,30.20
2018-04-14T00:35:51.457Z,29.83
2018-04-14T00:38:19.644Z,29.80
2018-04-14T00:40:45.717Z,29.13
2018-04-14T00:43:11.798Z,29.40
2018-04-14T00:45:38.693Z,31.40
2018-04-14T00:48:04.784Z,31.63
2018-04-14T00:50:31.747Z,31.03
2018-04-14T00:53:10.304Z,30.70
2018-04-14T00:55:36.413Z,30.90
2018-04-14T00:58:02.646Z,31.63
2018-04-14T01:00:28.854Z,32.00
2018-04-14T01:02:54.961Z,28.13
2018-04-14T01:05:21.041Z,32.50
2018-04-14T01:07:47.221Z,29.15
2018-04-14T01:10:13.343Z,34.13
2018-04-14T01:12:39.429Z,31.17
2018-04-14T01:15:05.635Z,31.60
2018-04-14T01:17:32.588Z,31.20
2018-04-14T01:19:58.780Z,30.73
2018-04-14T01:22:24.856Z,32.63
2018-04-14T01:24:51.676Z,32.00
2018-04-14T01:27:17.921Z,30.62
2018-04-14T01:29:44.756Z,31.90
2018-04-14T01:32:10.841Z,32.00
2018-04-14T01:34:36.946Z,32.55
2018-04-14T01:37:03.132Z,32.27
2018-04-14T01:39:29.273Z,32.90
2018-04-14T01:41:55.385Z,33.80
2018-04-14T01:44:21.518Z,37.08
2018-04-14T01:46:48.475Z,38.55
2018-04-14T01:49:14.671Z,38.67
2018-04-14T01:51:40.724Z,37.30
2018-04-14T01:54:06.800Z,36.87
2018-04-14T01:56:32.969Z,36.67
2018-04-14T01:58:59.348Z,39.07
2018-04-14T02:01:26.196Z,36.87
2018-04-14T02:03:52.385Z,37.50
2018-04-14T02:06:18.552Z,39.93
2018-04-14T02:08:45.440Z,38.57
2018-04-14T02:11:11.543Z,37.27
2018-04-14T02:13:37.618Z,38.20
2018-04-14T02:16:03.824Z,37.70
2018-04-14T02:18:30.043Z,37.57
2018-04-14T02:20:56.211Z,36.40
2018-04-14T02:23:22.279Z,35.53
2018-04-14T02:25:49.276Z,38.37
2018-04-14T02:28:15.350Z,37.73
2018-04-14T02:30:41.427Z,35.33
2018-04-14T02:33:08.279Z,36.00
2018-04-14T02:35:35.148Z,37.33
2018-04-14T02:38:01.279Z,39.10
2018-04-14T02:40:28.214Z,36.90
2018-04-14T02:42:55.108Z,34.40
2018-04-14T02:45:21.206Z,35.10
2018-04-14T02:47:48.072Z,36.90
2018-04-14T02:50:14.161Z,39.03
2018-04-14T02:52:40.279Z,37.07
2018-04-14T02:55:06.348Z,35.37
2018-04-14T02:57:32.481Z,36.17
2018-04-14T02:59:58.665Z,39.47
2018-04-14T03:02:24.741Z,40.10
2018-04-14T03:04:50.916Z,37.30
2018-04-14T03:07:17.057Z,38.37
2018-04-14T03:09:43.922Z,35.53
2018-04-14T03:12:10.071Z,36.63
2018-04-14T03:14:36.155Z,37.00
2018-04-14T03:17:02.342Z,36.60
2018-04-14T03:19:28.572Z,37.13
2018-04-14T03:21:54.673Z,34.67
2018-04-14T03:24:20.729Z,36.13
2018-04-14T03:26:47.001Z,38.25
2018-04-14T03:29:13.077Z,38.28
2018-04-14T03:31:39.150Z,39.10
2018-04-14T03:34:05.222Z,35.33
2018-04-14T03:36:31.413Z,42.97
2018-04-14T03:38:58.313Z,42.10
2018-04-14T03:41:24.428Z,37.83
2018-04-14T03:43:50.557Z,38.13
2018-04-14T03:46:16.663Z,39.03
2018-04-14T03:48:42.777Z,40.30
2018-04-14T03:51:08.901Z,37.13
2018-04-14T03:53:35.141Z,37.70
2018-04-14T03:56:02.088Z,43.70
2018-04-14T03:58:29.074Z,41.17
2018-04-14T04:00:55.187Z,39.00
2018-04-14T04:03:21.432Z,44.10
2018-04-14T04:05:47.645Z,39.88
2018-04-14T04:08:14.487Z,41.83
2018-04-14T04:10:40.691Z,40.40
2018-04-14T04:13:06.863Z,38.97
2018-04-14T04:15:33.614Z,37.08
2018-04-14T04:17:59.737Z,40.03
2018-04-14T04:23:37.664Z,37.60
2018-04-14T04:26:04.658Z,37.93
2018-04-14T04:28:31.158Z,36.05
2018-04-14T04:30:57.424Z,37.78
2018-04-14T04:33:24.373Z,40.67
2018-04-14T04:35:50.518Z,37.87
2018-04-14T04:38:16.774Z,40.15
2018-04-14T04:40:42.906Z,43.40
2018-04-14T04:43:10.464Z,43.60
2018-04-14T04:45:36.605Z,44.73
2018-04-14T04:48:02.749Z,41.03
2018-04-14T04:50:28.880Z,41.75
2018-04-14T04:52:55.051Z,42.53
2018-04-14T04:55:21.196Z,42.22
2018-04-14T04:57:48.096Z,40.97
2018-04-14T05:00:14.282Z,40.88
2018-04-14T05:02:41.134Z,40.17
2018-04-14T05:05:07.209Z,39.90
2018-04-14T05:07:33.390Z,39.78
2018-04-14T05:09:59.532Z,40.78
2018-04-14T05:12:25.606Z,39.80
2018-04-14T05:14:52.412Z,39.03
2018-04-14T05:17:18.470Z,39.78
2018-04-14T05:19:44.525Z,40.08
2018-04-14T05:22:10.601Z,38.87
2018-04-14T05:24:36.689Z,37.85
2018-04-14T05:27:02.806Z,39.45
2018-04-14T05:29:29.053Z,39.35
2018-04-14T05:31:55.872Z,42.97
2018-04-14T05:34:22.082Z,42.78
2018-04-14T05:36:48.917Z,41.53
2018-04-14T05:39:15.796Z,41.23
2018-04-14T05:41:41.878Z,41.80
2018-04-14T05:44:07.960Z,43.95
2018-04-14T05:46:34.050Z,43.63
2018-04-14T05:49:00.196Z,41.20
2018-04-14T05:51:26.298Z,39.60
2018-04-14T05:53:52.381Z,40.33
2018-04-14T05:56:18.539Z,41.80
2018-04-14T05:58:45.480Z,39.55
2018-04-14T06:01:12.320Z,42.38
2018-04-14T06:03:38.408Z,40.33
2018-04-14T06:06:04.485Z,41.83
2018-04-14T06:08:30.702Z,42.22
2018-04-14T06:10:56.818Z,42.92
2018-04-14T06:13:22.896Z,40.05
2018-04-14T06:15:48.967Z,42.33
2018-04-14T06:18:15.860Z,41.93
2018-04-14T06:20:41.961Z,41.17
2018-04-14T06:23:08.769Z,40.97
2018-04-14T06:25:34.924Z,41.75
2018-04-14T06:28:01.114Z,41.33
2018-04-14T06:30:27.405Z,40.50
2018-04-14T06:32:54.268Z,39.33
2018-04-14T06:35:20.393Z,38.03
2018-04-14T06:37:46.504Z,39.83
2018-04-14T06:40:12.609Z,39.92
2018-04-14T06:42:39.441Z,38.50
2018-04-14T06:45:11.588Z,40.42
2018-04-14T06:47:37.694Z,38.57
2018-04-14T06:50:04.059Z,38.63
2018-04-14T06:52:31.379Z,38.75
2018-04-14T06:54:59.359Z,37.28
2018-04-14T06:57:26.218Z,39.45
2018-04-14T06:59:55.984Z,38.15
2018-04-14T07:02:22.100Z,40.17
2018-04-14T07:04:51.759Z,38.07
2018-04-14T07:07:17.920Z,38.17
2018-04-14T07:09:57.768Z,37.10
2018-04-14T07:12:23.916Z,36.90
2018-04-14T07:14:55.654Z,35.30
2018-04-14T07:17:21.725Z,36.00
2018-04-14T07:19:47.919Z,33.03
2018-04-14T07:22:14.012Z,30.63
2018-04-14T07:24:40.095Z,28.70
2018-04-14T07:27:06.189Z,27.20
2018-04-14T07:29:33.156Z,27.87
2018-04-14T07:31:59.370Z,28.70
2018-04-14T07:34:26.261Z,27.83
2018-04-14T07:36:58.293Z,29.30
2018-04-14T07:39:25.141Z,27.57
2018-04-14T07:41:51.327Z,30.60
2018-04-14T07:44:17.374Z,27.27
2018-04-14T07:46:43.470Z,28.77
2018-04-14T07:49:10.298Z,29.23
2018-04-14T07:51:36.394Z,26.40
2018-04-14T07:54:04.163Z,27.90
2018-04-14T07:56:30.498Z,27.00
2018-04-14T07:58:56.610Z,26.93
2018-04-14T08:01:23.430Z,26.97
2018-04-14T08:03:49.506Z,24.30
2018-04-14T08:06:19.858Z,26.17
2018-04-14T08:08:46.844Z,25.73
2018-04-14T08:11:12.944Z,24.53
2018-04-14T08:13:39.133Z,26.20
2018-04-14T08:16:05.197Z,26.10
2018-04-14T08:18:31.396Z,23.80
2018-04-14T08:20:57.694Z,23.93
2018-04-14T08:23:32.493Z,25.03
2018-04-14T08:25:59.851Z,25.43
2018-04-14T08:28:26.137Z,25.40
2018-04-14T08:30:52.391Z,26.93
2018-04-14T08:33:18.816Z,26.43
2018-04-14T08:35:45.120Z,26.97
2018-04-14T08:38:12.130Z,26.57
2018-04-14T08:40:38.416Z,25.23
2018-04-14T08:43:04.770Z,27.23
2018-04-14T08:45:31.145Z,26.70
2018-04-14T08:47:58.579Z,26.50
2018-04-14T08:50:25.247Z,25.70
2018-04-14T08:52:51.567Z,26.57
2018-04-14T08:55:17.996Z,25.83
2018-04-14T08:57:44.272Z,26.50
2018-04-14T09:00:10.594Z,26.67
2018-04-14T09:02:36.911Z,24.80
2018-04-14T09:05:04.052Z,26.87
2018-04-14T09:07:30.435Z,25.30
2018-04-14T09:09:56.854Z,26.53
2018-04-14T09:12:23.186Z,28.30
2018-04-14T09:14:49.522Z,27.60
2018-04-14T09:17:16.929Z,27.40
2018-04-14T09:19:43.313Z,29.43
2018-04-14T09:22:09.629Z,29.60
2018-04-14T09:24:36.009Z,28.37
2018-04-14T09:27:02.381Z,28.13
2018-04-14T09:29:29.760Z,27.30
2018-04-14T09:31:56.061Z,26.13
2018-04-14T09:34:22.330Z,26.60
2018-04-14T09:36:48.677Z,25.03
2018-04-14T09:39:15.011Z,25.70
2018-04-14T09:41:44.241Z,28.60
2018-04-14T09:44:11.275Z,26.73
2018-04-14T09:46:37.540Z,27.50
2018-04-14T09:49:05.305Z,25.90
2018-04-14T09:51:32.405Z,27.30
2018-04-14T09:53:58.823Z,28.07
2018-04-14T09:56:25.230Z,27.87
2018-04-14T09:58:52.236Z,27.87
2018-04-14T10:01:25.382Z,27.47
2018-04-14T10:03:58.373Z,28.50
2018-04-14T10:06:24.741Z,27.63
2018-04-14T10:08:51.251Z,30.77
2018-04-14T10:11:17.565Z,29.30
2018-04-14T10:13:43.865Z,29.40
2018-04-14T10:16:10.236Z,31.63
2018-04-14T10:18:36.589Z,29.90
2018-04-14T10:21:02.937Z,30.83
2018-04-14T10:23:30.089Z,30.43
2018-04-14T10:25:56.411Z,30.00
2018-04-14T10:28:23.632Z,30.23
2018-04-14T10:30:49.941Z,31.77
2018-04-14T10:33:16.954Z,31.20
2018-04-14T10:35:43.225Z,31.33
2018-04-14T10:38:10.345Z,29.90
2018-04-14T10:40:36.604Z,30.27
2018-04-14T10:43:03.080Z,32.07
2018-04-14T10:45:29.525Z,32.67
2018-04-14T10:47:55.834Z,33.83
2018-04-14T10:50:22.109Z,31.87
2018-04-14T10:52:48.569Z,30.23
2018-04-14T10:55:14.865Z,31.57
2018-04-14T10:57:41.909Z,34.23
2018-04-14T11:00:08.154Z,30.77
2018-04-14T11:02:36.512Z,33.20
2018-04-14T11:05:05.796Z,33.00
2018-04-14T11:07:34.019Z,31.67
2018-04-14T11:10:00.784Z,32.67
2018-04-14T11:12:27.706Z,32.00
2018-04-14T11:14:54.280Z,33.20
2018-04-14T11:17:20.552Z,33.50
2018-04-14T11:19:46.962Z,32.33
2018-04-14T11:22:14.038Z,33.93
2018-04-14T11:24:40.332Z,32.20
2018-04-14T11:27:06.605Z,32.00
2018-04-14T11:29:32.932Z,33.73
2018-04-14T11:31:59.245Z,31.50
2018-04-14T11:34:27.104Z,32.83
2018-04-14T11:36:54.150Z,33.23
2018-04-14T11:39:20.429Z,33.30
2018-04-14T11:41:46.741Z,32.57
2018-04-14T11:44:13.049Z,32.63
2018-04-14T11:46:39.325Z,34.63
2018-04-14T11:49:08.649Z,32.63
2018-04-14T11:51:34.949Z,31.53
2018-04-14T11:54:01.269Z,34.40
2018-04-14T11:56:27.646Z,33.50
2018-04-14T11:58:53.970Z,31.60
2018-04-14T12:01:20.262Z,34.00
2018-04-14T12:03:47.383Z,34.10
2018-04-14T12:06:13.749Z,33.47
2018-04-14T12:08:40.036Z,31.13
2018-04-14T12:11:06.305Z,30.97
2018-04-14T12:13:32.889Z,30.60
2018-04-14T12:16:00.041Z,33.43
2018-04-14T12:18:26.554Z,32.33
2018-04-14T12:20:52.880Z,32.50
2018-04-14T12:23:19.167Z,30.73
2018-04-14T12:25:45.499Z,29.63
2018-04-14T12:28:13.837Z,28.57
2018-04-14T12:30:40.861Z,29.47
2018-04-14T12:33:07.140Z,30.47
2018-04-14T12:35:33.504Z,31.10
2018-04-14T12:37:59.860Z,31.47
2018-04-14T12:40:26.204Z,33.50
2018-04-14T12:42:52.497Z,32.73
2018-04-14T12:45:23.429Z,29.87
2018-04-14T12:47:49.629Z,30.47
2018-04-14T12:50:15.936Z,30.87
2018-04-14T12:52:42.968Z,31.93
2018-04-14T12:55:09.277Z,31.40
2018-04-14T12:57:35.562Z,30.50
2018-04-14T13:00:01.907Z,27.60
2018-04-14T13:02:29.729Z,29.07
2018-04-14T13:04:59.228Z,28.47
2018-04-14T13:07:28.936Z,28.57
2018-04-14T13:09:55.435Z,27.67
2018-04-14T13:12:21.729Z,28.03
2018-04-14T13:14:48.078Z,27.30
2018-04-14T13:17:14.466Z,25.47
2018-04-14T13:19:40.752Z,24.00
2018-04-14T13:22:07.289Z,24.30
2018-04-14T13:24:33.585Z,24.10
2018-04-14T13:27:00.696Z,25.47
2018-04-14T13:29:27.200Z,23.97
2018-04-14T13:31:53.558Z,20.70
2018-04-14T13:34:20.862Z,22.90
2018-04-14T13:36:47.942Z,23.10
2018-04-14T13:39:14.201Z,22.43
2018-04-14T13:41:41.494Z,22.93
2018-04-14T13:44:07.904Z,24.27
2018-04-14T13:46:35.000Z,25.10
2018-04-14T13:49:01.337Z,26.47
2018-04-14T13:51:27.725Z,23.10
2018-04-14T13:53:56.810Z,23.03
2018-04-14T13:56:23.156Z,24.77
2018-04-14T13:58:49.585Z,27.57
2018-04-14T14:01:15.920Z,26.27
2018-04-14T14:03:42.217Z,23.50
2018-04-14T14:06:08.484Z,22.80
2018-04-14T14:08:34.769Z,22.00
2018-04-14T14:11:01.224Z,34.30
2018-04-14T14:13:27.693Z,25.30
2018-04-14T14:15:53.959Z,28.87
2018-04-14T14:18:20.265Z,26.50
2018-04-14T14:20:46.611Z,26.00
2018-04-14T14:23:13.076Z,26.47
2018-04-14T14:25:39.349Z,23.30
2018-04-14T14:28:05.657Z,24.27
2018-04-14T14:30:32.007Z,21.57
2018-04-14T14:33:00.573Z,22.07
2018-04-14T14:35:27.694Z,20.70
2018-04-14T14:37:56.093Z,21.63
2018-04-14T14:40:22.368Z,22.83
2018-04-14T14:42:49.426Z,22.37
2018-04-14T14:45:15.708Z,22.30
2018-04-14T14:47:42.123Z,22.10
2018-04-14T14:53:05.017Z,21.50
2018-04-14T14:55:32.160Z,21.70
2018-04-14T14:57:58.473Z,20.60
2018-04-14T15:00:25.648Z,23.47
2018-04-14T15:02:51.981Z,22.43
2018-04-14T15:05:18.901Z,19.60
2018-04-14T15:07:45.504Z,21.00
2018-04-14T15:10:11.801Z,20.40
2018-04-14T15:12:38.829Z,18.77
2018-04-14T15:15:05.903Z,17.57
2018-04-14T15:17:32.252Z,18.73
2018-04-14T15:20:00.149Z,19.70
2018-04-14T15:22:27.207Z,19.30
2018-04-14T15:24:53.513Z,21.60
2018-04-14T15:27:19.856Z,21.20
2018-04-14T15:29:46.162Z,19.20
2018-04-14T15:32:13.162Z,17.80
2018-04-14T15:34:44.408Z,17.23
2018-04-14T15:37:10.673Z,16.90
2018-04-14T15:39:36.913Z,17.37
2018-04-14T15:42:03.195Z,16.40
2018-04-14T15:44:30.243Z,16.33
2018-04-14T15:46:57.353Z,18.30
2018-04-14T15:49:23.588Z,16.93
2018-04-14T15:51:49.937Z,16.20
2018-04-14T15:54:16.173Z,14.93
2018-04-14T15:56:42.432Z,15.10
2018-04-14T15:59:08.701Z,14.97
2018-04-14T16:01:34.961Z,16.90
2018-04-14T16:04:09.656Z,18.80
2018-04-14T16:06:27.655Z,18.03
2018-04-14T16:08:54.717Z,17.03
2018-04-14T16:11:20.988Z,18.13
2018-04-14T16:13:48.773Z,17.13
2018-04-14T16:16:15.060Z,16.70
2018-04-14T16:18:42.082Z,17.07
2018-04-14T16:21:08.341Z,27.60
2018-04-14T16:23:34.614Z,29.63
2018-04-14T16:26:00.863Z,28.20
2018-04-14T16:28:27.209Z,31.43
2018-04-14T16:30:56.188Z,25.93
2018-04-14T16:33:22.477Z,28.33
2018-04-14T16:35:48.755Z,28.33
2018-04-14T16:38:15.005Z,27.50
2018-04-14T16:40:41.265Z,26.40
2018-04-14T16:43:07.550Z,25.60
2018-04-14T16:45:33.797Z,26.80
2018-04-14T16:48:01.512Z,25.37
2018-04-14T16:50:27.885Z,26.60
2018-04-14T16:52:54.880Z,27.70
2018-04-14T16:55:20.921Z,27.07
2018-04-14T16:57:47.029Z,26.90
2018-04-14T17:00:13.352Z,27.07
2018-04-14T17:02:39.588Z,25.70
2018-04-14T17:05:08.877Z,28.27
2018-04-14T17:07:34.978Z,26.90
2018-04-14T17:10:01.064Z,28.17
2018-04-14T17:12:27.964Z,28.60
2018-04-14T17:14:54.784Z,27.97
2018-04-14T17:17:21.764Z,29.10
2018-04-14T17:19:47.984Z,26.87
2018-04-14T17:22:19.208Z,27.80
2018-04-14T17:24:45.338Z,26.30
2018-04-14T17:27:11.393Z,25.87
2018-04-14T17:29:37.463Z,27.00
2018-04-14T17:32:03.532Z,25.43
2018-04-14T17:34:33.434Z,25.37
2018-04-14T17:37:00.293Z,25.53
2018-04-14T17:39:32.085Z,25.17
2018-04-14T17:41:58.944Z,25.17
2018-04-14T17:44:25.071Z,24.60
2018-04-14T17:46:51.080Z,24.77
2018-04-14T17:49:17.136Z,25.00
2018-04-14T17:51:43.208Z,23.73
2018-04-14T17:54:09.275Z,23.23
2018-04-14T17:56:35.329Z,24.83
2018-04-14T17:59:03.790Z,24.17
2018-04-14T18:01:29.920Z,24.17
2018-04-14T18:03:56.026Z,23.30
2018-04-14T18:06:22.808Z,25.07
2018-04-14T18:08:48.934Z,26.33
2018-04-14T18:11:15.015Z,26.00
2018-04-14T18:13:41.121Z,26.00
2018-04-14T18:16:12.035Z,25.60
2018-04-14T18:18:38.116Z,26.53
2018-04-14T18:21:04.167Z,26.53
2018-04-14T18:23:30.268Z,27.17
2018-04-14T18:25:56.312Z,26.13
2018-04-14T18:28:22.357Z,26.60
2018-04-14T18:30:48.451Z,26.53
2018-04-14T18:33:19.149Z,28.47
2018-04-14T18:35:45.257Z,27.17
2018-04-14T18:38:11.337Z,25.47
2018-04-14T18:40:37.441Z,27.73
2018-04-14T18:43:03.601Z,27.70
2018-04-14T18:45:29.800Z,26.40
2018-04-14T18:47:55.882Z,28.37
2018-04-14T18:50:25.588Z,27.47
2018-04-14T18:52:51.674Z,30.07
2018-04-14T18:55:17.772Z,28.43
2018-04-14T18:57:43.846Z,28.00
2018-04-14T19:00:09.929Z,30.03
2018-04-14T19:02:36.786Z,29.07
2018-04-14T19:05:02.836Z,29.43
2018-04-14T19:07:32.383Z,30.57
2018-04-14T19:09:59.346Z,30.63
2018-04-14T19:12:25.433Z,29.87
2018-04-14T19:14:52.269Z,29.90
2018-04-14T19:17:18.481Z,30.57
2018-04-14T19:19:44.598Z,31.73
2018-04-14T19:22:10.696Z,33.57
2018-04-14T19:24:39.208Z,31.60
2018-04-14T19:27:06.056Z,31.50
2018-04-14T19:29:32.938Z,31.00
2018-04-14T19:31:59.127Z,31.97
2018-04-14T19:34:25.313Z,32.63
2018-04-14T19:36:51.368Z,30.93
2018-04-14T19:39:17.466Z,31.07
2018-04-14T19:41:43.532Z,31.37
2018-04-14T19:44:13.889Z,32.57
2018-04-14T19:46:40.705Z,31.73
2018-04-14T19:49:08.323Z,30.47
2018-04-14T19:51:34.373Z,30.93
2018-04-14T19:54:00.459Z,31.30
2018-04-14T19:56:26.587Z,31.33
2018-04-14T19:58:52.617Z,30.63
2018-04-14T20:01:23.466Z,31.40
2018-04-14T20:03:49.585Z,30.47
2018-04-14T20:06:15.660Z,30.80
2018-04-14T20:08:41.712Z,31.43
2018-04-14T20:11:08.504Z,32.80
2018-04-14T20:13:34.701Z,31.57
2018-04-14T20:16:01.534Z,30.93
2018-04-14T20:18:30.306Z,30.80
2018-04-14T20:20:56.364Z,30.67
2018-04-14T20:23:22.425Z,32.10
2018-04-14T20:25:49.272Z,30.93
2018-04-14T20:28:15.330Z,31.20
2018-04-14T20:30:41.409Z,32.50
2018-04-14T20:33:07.449Z,29.93
2018-04-14T20:35:33.525Z,31.50
2018-04-14T20:38:01.721Z,30.50
2018-04-14T20:40:31.526Z,31.40
2018-04-14T20:42:57.931Z,31.40
2018-04-14T20:45:24.047Z,31.50
2018-04-14T20:47:50.153Z,31.50
2018-04-14T20:50:16.220Z,29.93
2018-04-14T20:52:43.044Z,32.30
2018-04-14T20:55:09.113Z,32.30
2018-04-14T20:57:35.937Z,30.40
2018-04-14T21:00:02.103Z,31.80
2018-04-14T21:02:28.966Z,31.57
2018-04-14T21:04:55.058Z,30.73
2018-04-14T21:07:21.137Z,31.30
2018-04-14T21:09:48.004Z,30.63
2018-04-14T21:12:14.625Z,32.00
2018-04-14T21:14:40.705Z,29.40
2018-04-14T21:17:06.788Z,32.20
2018-04-14T21:19:32.897Z,31.10
2018-04-14T21:21:59.122Z,32.30
2018-04-14T21:24:25.236Z,31.10
2018-04-14T21:26:51.358Z,32.93
2018-04-14T21:29:17.466Z,32.97
2018-04-14T21:31:43.540Z,31.93
2018-04-14T21:34:10.357Z,30.83
2018-04-14T21:36:36.428Z,31.63
2018-04-14T21:39:03.532Z,32.50
2018-04-14T21:41:29.640Z,32.83
2018-04-14T21:43:55.736Z,32.40
2018-04-14T21:46:21.817Z,31.57
2018-04-14T21:48:47.888Z,31.07
2018-04-14T21:51:15.500Z,31.83
2018-04-14T21:53:41.575Z,33.67
2018-04-14T21:56:07.641Z,33.70
2018-04-14T21:58:33.761Z,32.67
2018-04-14T22:00:59.974Z,32.63
2018-04-14T22:03:26.084Z,34.00
2018-04-14T22:05:52.173Z,32.83
2018-04-14T22:08:18.253Z,32.80
2018-04-14T22:10:45.508Z,32.43
2018-04-14T22:13:11.585Z,35.40
2018-04-14T22:15:37.677Z,32.73
2018-04-14T22:18:03.760Z,34.70
2018-04-14T22:20:29.871Z,33.60
2018-04-14T22:22:56.742Z,33.67
2018-04-14T22:25:22.923Z,34.80
2018-04-14T22:27:49.004Z,34.20
2018-04-14T22:30:15.092Z,32.10
2018-04-14T22:32:42.811Z,33.90
2018-04-14T22:35:09.901Z,31.17
2018-04-14T22:37:35.989Z,34.40
2018-04-14T22:40:02.272Z,34.00
2018-04-14T22:42:28.412Z,34.40
2018-04-14T22:44:54.465Z,32.57
2018-04-14T22:47:20.519Z,33.27
2018-04-14T22:49:46.580Z,33.60
2018-04-14T22:52:12.678Z,32.03
2018-04-14T22:54:38.764Z,34.70
2018-04-14T22:57:05.611Z,33.83
2018-04-14T22:59:32.015Z,33.43
2018-04-14T23:01:58.195Z,33.63
2018-04-14T23:04:25.033Z,34.87
2018-04-14T23:06:51.105Z,32.50
2018-04-14T23:09:17.240Z,37.30
2018-04-14T23:11:43.322Z,34.30
2018-04-14T23:14:11.474Z,33.90
2018-04-14T23:16:37.552Z,36.00
2018-04-14T23:19:03.640Z,34.00
2018-04-14T23:21:29.771Z,36.10
2018-04-14T23:23:55.864Z,34.67
2018-04-14T23:26:21.932Z,33.20
2018-04-14T23:28:48.852Z,33.47
2018-04-14T23:31:14.924Z,35.10
2018-04-14T23:33:41.741Z,35.97
2018-04-14T23:36:07.913Z,32.30
2018-04-14T23:38:34.741Z,36.17
2018-04-14T23:41:00.869Z,35.57
2018-04-14T23:43:28.576Z,36.93
2018-04-14T23:45:55.404Z,35.73
2018-04-14T23:48:21.616Z,36.00
2018-04-14T23:50:47.732Z,36.27
2018-04-14T23:53:13.814Z,36.70
2018-04-14T23:55:39.916Z,35.13
2018-04-14T23:58:06.012Z,33.47
